^^
Station Historical Data
Daily Summary for September 4, 2017 Units:  Both    English   Metric
« Previous Day
Next Day »
Daily Weekly Monthly Yearly Custom
  High: Low: Average:
Temperature: TemperatureF °F /  -17.8 °C 57.0 °F /  13.9 °C 69 °F /  20.6 °C
Dew Point: DewpointF °F /  -17.8 °C 28.2 °F /  -2.1 °C 32.2 °F /  0.1 °C
Humidity: Humidity% 15% 27%
Wind Speed: WindSpeedMPHmph /  0km/h - 1.7mph /  2.7km/h
Wind Gust: WindSpeedGustMPHmph /  0km/h - -
Wind- - ESE
Pressure: PressureIn in /  0 hPa 30.10 in /  1019.2 hPa -
Precipitation: 0.00 in /  0 mm    
Historical Graphs
 
 
Tabular Data for September 4, 2017
Time Temperature Dew Point Pressure Wind Wind Speed Wind Gust Humidity Rainfall Rate (Hourly) solar Conditions
TemperatureF °F /  -17.8 °C DewpointF °F /  -17.8 °C PressureInin /  0hPa Calm     Humidity% HourlyPrecipInin /  0mm SolarRadiationWatts/m^2 W/m2 Conditions
00:02 62.8 °F /  17.1 °C 33.3 °F /  0.7 °C 30.20in /  1022.6hPa East 2.0mph /  3.2km/h 2.0mph /  3.2km/h 33% 0.00in /  0mm 0.0 W/m2
00:07 62.8 °F /  17.1 °C 33.3 °F /  0.7 °C 30.20in /  1022.6hPa ENE 0.9mph /  1.4km/h 4.0mph /  6.4km/h 33% 0.00in /  0mm 0.0 W/m2
00:13 63.1 °F /  17.3 °C 33.6 °F /  0.9 °C 30.20in /  1022.6hPa ENE 4.0mph /  6.4km/h 6.0mph /  9.7km/h 33% 0.00in /  0mm 0.0 W/m2
00:19 63.3 °F /  17.4 °C 33.8 °F /  1 °C 30.20in /  1022.6hPa NE 2.9mph /  4.7km/h 4.0mph /  6.4km/h 33% 0.00in /  0mm 0.0 W/m2
00:25 63.7 °F /  17.6 °C 34.0 °F /  1.1 °C 30.20in /  1022.6hPa Calm   4.0mph /  6.4km/h 33% 0.00in /  0mm 0.0 W/m2
00:31 63.7 °F /  17.6 °C 33.3 °F /  0.7 °C 30.20in /  1022.6hPa ESE 2.9mph /  4.7km/h 6.0mph /  9.7km/h 32% 0.00in /  0mm 0.0 W/m2
00:37 63.9 °F /  17.7 °C 33.4 °F /  0.8 °C 30.20in /  1022.6hPa ESE 4.9mph /  7.9km/h 11.0mph /  17.7km/h 32% 0.00in /  0mm 0.0 W/m2
00:43 64.2 °F /  17.9 °C 33.8 °F /  1 °C 30.20in /  1022.6hPa SE 2.9mph /  4.7km/h 11.0mph /  17.7km/h 32% 0.00in /  0mm 0.0 W/m2
00:49 64.4 °F /  18 °C 34.0 °F /  1.1 °C 30.19in /  1022.2hPa East 2.9mph /  4.7km/h 11.0mph /  17.7km/h 32% 0.00in /  0mm 0.0 W/m2
00:55 64.6 °F /  18.1 °C 34.0 °F /  1.1 °C 30.19in /  1022.2hPa NE 0.9mph /  1.4km/h 10.0mph /  16.1km/h 32% 0.00in /  0mm 0.0 W/m2
01:01 64.4 °F /  18 °C 34.0 °F /  1.1 °C 30.19in /  1022.2hPa East 4.0mph /  6.4km/h 7.0mph /  11.3km/h 32% 0.00in /  0mm 0.0 W/m2
01:07 64.2 °F /  17.9 °C 33.8 °F /  1 °C 30.20in /  1022.6hPa NE 6.0mph /  9.7km/h 11.0mph /  17.7km/h 32% 0.00in /  0mm 0.0 W/m2
01:13 64.0 °F /  17.8 °C 33.6 °F /  0.9 °C 30.19in /  1022.2hPa ESE 2.9mph /  4.7km/h 9.0mph /  14.5km/h 32% 0.00in /  0mm 0.0 W/m2
01:19 63.9 °F /  17.7 °C 34.2 °F /  1.2 °C 30.19in /  1022.2hPa NE 2.0mph /  3.2km/h 8.0mph /  12.9km/h 33% 0.00in /  0mm 0.0 W/m2
01:25 63.5 °F /  17.5 °C 33.8 °F /  1 °C 30.19in /  1022.2hPa ENE 4.0mph /  6.4km/h 6.0mph /  9.7km/h 33% 0.00in /  0mm 0.0 W/m2
01:32 63.1 °F /  17.3 °C 33.6 °F /  0.9 °C 30.19in /  1022.2hPa ENE 2.9mph /  4.7km/h 7.0mph /  11.3km/h 33% 0.00in /  0mm 0.0 W/m2
01:37 63.0 °F /  17.2 °C 33.4 °F /  0.8 °C 30.19in /  1022.2hPa East 4.9mph /  7.9km/h 10.0mph /  16.1km/h 33% 0.00in /  0mm 0.0 W/m2
01:43 62.6 °F /  17 °C 33.8 °F /  1 °C 30.19in /  1022.2hPa East 0.9mph /  1.4km/h 8.0mph /  12.9km/h 34% 0.00in /  0mm 0.0 W/m2
01:49 62.4 °F /  16.9 °C 33.6 °F /  0.9 °C 30.19in /  1022.2hPa Calm   3.0mph /  4.8km/h 34% 0.00in /  0mm 0.0 W/m2
01:55 62.1 °F /  16.7 °C 34.2 °F /  1.2 °C 30.19in /  1022.2hPa Calm   8.0mph /  12.9km/h 35% 0.00in /  0mm 0.0 W/m2
02:02 61.9 °F /  16.6 °C 34.0 °F /  1.1 °C 30.19in /  1022.2hPa NNE 4.0mph /  6.4km/h 6.0mph /  9.7km/h 35% 0.00in /  0mm 0.0 W/m2
02:08 61.5 °F /  16.4 °C 33.6 °F /  0.9 °C 30.19in /  1022.2hPa Calm   6.0mph /  9.7km/h 35% 0.00in /  0mm 0.0 W/m2
02:14 61.5 °F /  16.4 °C 33.6 °F /  0.9 °C 30.18in /  1021.9hPa ESE 0.9mph /  1.4km/h 6.0mph /  9.7km/h 35% 0.00in /  0mm 0.0 W/m2
02:20 61.2 °F /  16.2 °C 33.3 °F /  0.7 °C 30.18in /  1021.9hPa NE 2.0mph /  3.2km/h 4.0mph /  6.4km/h 35% 0.00in /  0mm 0.0 W/m2
02:26 61.0 °F /  16.1 °C 33.8 °F /  1 °C 30.19in /  1022.2hPa Calm   9.0mph /  14.5km/h 36% 0.00in /  0mm 0.0 W/m2
02:32 61.0 °F /  16.1 °C 33.8 °F /  1 °C 30.19in /  1022.2hPa Calm   8.0mph /  12.9km/h 36% 0.00in /  0mm 0.0 W/m2
02:38 61.0 °F /  16.1 °C 33.8 °F /  1 °C 30.18in /  1021.9hPa ENE 4.0mph /  6.4km/h 5.0mph /  8km/h 36% 0.00in /  0mm 0.0 W/m2
02:44 61.0 °F /  16.1 °C 33.8 °F /  1 °C 30.19in /  1022.2hPa East 6.0mph /  9.7km/h 9.0mph /  14.5km/h 36% 0.00in /  0mm 0.0 W/m2
02:50 61.0 °F /  16.1 °C 33.8 °F /  1 °C 30.18in /  1021.9hPa ESE 0.9mph /  1.4km/h 5.0mph /  8km/h 36% 0.00in /  0mm 0.0 W/m2
02:56 61.0 °F /  16.1 °C 33.8 °F /  1 °C 30.18in /  1021.9hPa East 2.0mph /  3.2km/h 10.0mph /  16.1km/h 36% 0.00in /  0mm 0.0 W/m2
03:02 60.8 °F /  16 °C 33.6 °F /  0.9 °C 30.18in /  1021.9hPa NE 2.0mph /  3.2km/h 8.0mph /  12.9km/h 36% 0.00in /  0mm 0.0 W/m2
03:08 60.8 °F /  16 °C 33.6 °F /  0.9 °C 30.18in /  1021.9hPa Calm   12.0mph /  19.3km/h 36% 0.00in /  0mm 0.0 W/m2
03:14 60.6 °F /  15.9 °C 33.4 °F /  0.8 °C 30.18in /  1021.9hPa South 8.1mph /  13km/h 9.0mph /  14.5km/h 36% 0.00in /  0mm 0.0 W/m2
03:20 60.6 °F /  15.9 °C 33.4 °F /  0.8 °C 30.18in /  1021.9hPa Calm   10.0mph /  16.1km/h 36% 0.00in /  0mm 0.0 W/m2
03:26 60.6 °F /  15.9 °C 33.4 °F /  0.8 °C 30.18in /  1021.9hPa Calm   7.0mph /  11.3km/h 36% 0.00in /  0mm 0.0 W/m2
03:32 60.6 °F /  15.9 °C 33.4 °F /  0.8 °C 30.18in /  1021.9hPa ENE 6.9mph /  11.1km/h 7.0mph /  11.3km/h 36% 0.00in /  0mm 0.0 W/m2
03:38 60.4 °F /  15.8 °C 33.4 °F /  0.8 °C 30.18in /  1021.9hPa NE 0.9mph /  1.4km/h 10.0mph /  16.1km/h 36% 0.00in /  0mm 0.0 W/m2
03:44 60.4 °F /  15.8 °C 33.4 °F /  0.8 °C 30.18in /  1021.9hPa Calm   12.0mph /  19.3km/h 36% 0.00in /  0mm 0.0 W/m2
03:50 60.4 °F /  15.8 °C 33.4 °F /  0.8 °C 30.18in /  1021.9hPa ENE 2.0mph /  3.2km/h 7.0mph /  11.3km/h 36% 0.00in /  0mm 0.0 W/m2
03:56 60.3 °F /  15.7 °C 33.3 °F /  0.7 °C 30.18in /  1021.9hPa Calm   4.0mph /  6.4km/h 36% 0.00in /  0mm 0.0 W/m2
04:02 60.1 °F /  15.6 °C 33.8 °F /  1 °C 30.18in /  1021.9hPa Calm   1.0mph /  1.6km/h 37% 0.00in /  0mm 0.0 W/m2
04:08 59.9 °F /  15.5 °C 33.6 °F /  0.9 °C 30.18in /  1021.9hPa Calm   2.0mph /  3.2km/h 37% 0.00in /  0mm 0.0 W/m2
04:14 59.5 °F /  15.3 °C 33.3 °F /  0.7 °C 30.18in /  1021.9hPa Calm   1.0mph /  1.6km/h 37% 0.00in /  0mm 0.0 W/m2
04:20 59.4 °F /  15.2 °C 33.8 °F /  1 °C 30.19in /  1022.2hPa NNW 0.9mph /  1.4km/h 2.0mph /  3.2km/h 38% 0.00in /  0mm 0.0 W/m2
04:26 59.0 °F /  15 °C 33.4 °F /  0.8 °C 30.19in /  1022.2hPa North 0.9mph /  1.4km/h 3.0mph /  4.8km/h 38% 0.00in /  0mm 0.0 W/m2
04:32 59.0 °F /  15 °C 33.4 °F /  0.8 °C 30.19in /  1022.2hPa NNE 2.0mph /  3.2km/h 3.0mph /  4.8km/h 38% 0.00in /  0mm 0.0 W/m2
04:38 59.2 °F /  15.1 °C 33.6 °F /  0.9 °C 30.19in /  1022.2hPa ENE 0.9mph /  1.4km/h 6.0mph /  9.7km/h 38% 0.00in /  0mm 0.0 W/m2
04:44 59.4 °F /  15.2 °C 33.8 °F /  1 °C 30.19in /  1022.2hPa NE 4.0mph /  6.4km/h 6.0mph /  9.7km/h 38% 0.00in /  0mm 0.0 W/m2
04:50 59.5 °F /  15.3 °C 33.3 °F /  0.7 °C 30.19in /  1022.2hPa ENE 8.1mph /  13km/h 8.1mph /  13km/h 37% 0.00in /  0mm 0.0 W/m2
04:56 59.5 °F /  15.3 °C 33.3 °F /  0.7 °C 30.19in /  1022.2hPa NE 6.0mph /  9.7km/h 6.0mph /  9.7km/h 37% 0.00in /  0mm 0.0 W/m2
05:02 59.5 °F /  15.3 °C 33.3 °F /  0.7 °C 30.19in /  1022.2hPa Calm   5.0mph /  8km/h 37% 0.00in /  0mm 0.0 W/m2
05:08 59.5 °F /  15.3 °C 33.3 °F /  0.7 °C 30.20in /  1022.6hPa NE 2.0mph /  3.2km/h 5.0mph /  8km/h 37% 0.00in /  0mm 0.0 W/m2
05:18 59.2 °F /  15.1 °C 33.6 °F /  0.9 °C 30.20in /  1022.6hPa Calm   3.0mph /  4.8km/h 38% 0.00in /  0mm 0.0 W/m2
05:24 59.2 °F /  15.1 °C 33.6 °F /  0.9 °C 30.20in /  1022.6hPa Calm   3.0mph /  4.8km/h 38% 0.00in /  0mm 0.0 W/m2
05:30 58.8 °F /  14.9 °C 33.3 °F /  0.7 °C 30.20in /  1022.6hPa Calm   2.0mph /  3.2km/h 38% 0.00in /  0mm 0.0 W/m2
05:32 58.8 °F /  14.9 °C 33.3 °F /  0.7 °C 30.20in /  1022.6hPa Calm   1.0mph /  1.6km/h 38% 0.00in /  0mm 0.0 W/m2
05:38 58.5 °F /  14.7 °C 32.9 °F /  0.5 °C 30.21in /  1022.9hPa Calm   4.0mph /  6.4km/h 38% 0.00in /  0mm 0.0 W/m2
05:44 58.3 °F /  14.6 °C 32.7 °F /  0.4 °C 30.21in /  1022.9hPa ENE 0.9mph /  1.4km/h 6.0mph /  9.7km/h 38% 0.00in /  0mm 0.0 W/m2
05:50 57.9 °F /  14.4 °C 32.5 °F /  0.3 °C 30.21in /  1022.9hPa Calm   5.0mph /  8km/h 38% 0.00in /  0mm 0.0 W/m2
05:56 57.9 °F /  14.4 °C 33.1 °F /  0.6 °C 30.21in /  1022.9hPa Calm   4.0mph /  6.4km/h 39% 0.00in /  0mm 0.0 W/m2
06:02 57.7 °F /  14.3 °C 32.9 °F /  0.5 °C 30.21in /  1022.9hPa SE 4.0mph /  6.4km/h 7.0mph /  11.3km/h 39% 0.00in /  0mm 0.0 W/m2
06:08 57.7 °F /  14.3 °C 32.9 °F /  0.5 °C 30.21in /  1022.9hPa Calm   3.0mph /  4.8km/h 39% 0.00in /  0mm 0.0 W/m2
06:15 57.9 °F /  14.4 °C 33.1 °F /  0.6 °C 30.22in /  1023.2hPa Calm   9.0mph /  14.5km/h 39% 0.00in /  0mm 0.0 W/m2
06:21 57.9 °F /  14.4 °C 33.1 °F /  0.6 °C 30.22in /  1023.2hPa ENE 2.9mph /  4.7km/h 5.0mph /  8km/h 39% 0.00in /  0mm 0.0 W/m2
06:23 57.9 °F /  14.4 °C 33.8 °F /  1 °C 30.22in /  1023.2hPa Calm   4.0mph /  6.4km/h 40% 0.00in /  0mm 0.0 W/m2
06:30 57.7 °F /  14.3 °C 33.6 °F /  0.9 °C 30.23in /  1023.6hPa Calm   6.0mph /  9.7km/h 40% 0.00in /  0mm 0.0 W/m2
06:35 57.7 °F /  14.3 °C 33.6 °F /  0.9 °C 30.22in /  1023.2hPa Calm   5.0mph /  8km/h 40% 0.00in /  0mm 0.0 W/m2
06:41 57.7 °F /  14.3 °C 34.2 °F /  1.2 °C 30.23in /  1023.6hPa NE 4.0mph /  6.4km/h 4.0mph /  6.4km/h 41% 0.00in /  0mm 0.0 W/m2
06:47 57.6 °F /  14.2 °C 34.0 °F /  1.1 °C 30.23in /  1023.6hPa ESE 0.9mph /  1.4km/h 7.0mph /  11.3km/h 41% 0.00in /  0mm 0.0 W/m2
06:54 57.4 °F /  14.1 °C 33.8 °F /  1 °C 30.23in /  1023.6hPa East 2.9mph /  4.7km/h 5.0mph /  8km/h 41% 0.00in /  0mm 0.0 W/m2
07:00 57.4 °F /  14.1 °C 34.5 °F /  1.4 °C 30.24in /  1023.9hPa Calm   4.0mph /  6.4km/h 42% 0.00in /  0mm 0.0 W/m2
07:06 57.2 °F /  14 °C 34.3 °F /  1.3 °C 30.24in /  1023.9hPa Calm   7.0mph /  11.3km/h 42% 0.00in /  0mm 7.0 W/m2
07:12 57.0 °F /  13.9 °C 34.2 °F /  1.2 °C 30.24in /  1023.9hPa ENE 2.9mph /  4.7km/h 8.0mph /  12.9km/h 42% 0.00in /  0mm 11.0 W/m2
07:18 57.0 °F /  13.9 °C 34.2 °F /  1.2 °C 30.24in /  1023.9hPa East 6.9mph /  11.1km/h 7.0mph /  11.3km/h 42% 0.00in /  0mm 14.0 W/m2
07:24 57.4 °F /  14.1 °C 34.5 °F /  1.4 °C 30.24in /  1023.9hPa ENE 2.0mph /  3.2km/h 5.0mph /  8km/h 42% 0.00in /  0mm 19.0 W/m2
07:30 57.6 °F /  14.2 °C 34.7 °F /  1.5 °C 30.24in /  1023.9hPa ENE 2.9mph /  4.7km/h 6.0mph /  9.7km/h 42% 0.00in /  0mm 25.0 W/m2
07:36 57.7 °F /  14.3 °C 34.9 °F /  1.6 °C 30.25in /  1024.3hPa NE 2.9mph /  4.7km/h 5.0mph /  8km/h 42% 0.00in /  0mm 28.0 W/m2
07:42 57.9 °F /  14.4 °C 34.3 °F /  1.3 °C 30.25in /  1024.3hPa NNE 0.9mph /  1.4km/h 7.0mph /  11.3km/h 41% 0.00in /  0mm 32.0 W/m2
07:48 58.3 °F /  14.6 °C 34.0 °F /  1.1 °C 30.25in /  1024.3hPa East 0.9mph /  1.4km/h 8.0mph /  12.9km/h 40% 0.00in /  0mm 35.0 W/m2
07:54 58.6 °F /  14.8 °C 34.3 °F /  1.3 °C 30.25in /  1024.3hPa NNE 4.0mph /  6.4km/h 11.0mph /  17.7km/h 40% 0.00in /  0mm 39.0 W/m2
08:00 59.2 °F /  15.1 °C 34.2 °F /  1.2 °C 30.25in /  1024.3hPa ESE 4.9mph /  7.9km/h 5.0mph /  8km/h 39% 0.00in /  0mm 42.0 W/m2
08:07 59.7 °F /  15.4 °C 34.0 °F /  1.1 °C 30.26in /  1024.6hPa NE 4.0mph /  6.4km/h 5.0mph /  8km/h 38% 0.00in /  0mm 44.0 W/m2
08:13 60.1 °F /  15.6 °C 33.8 °F /  1 °C 30.25in /  1024.3hPa NE 4.9mph /  7.9km/h 9.0mph /  14.5km/h 37% 0.00in /  0mm 47.0 W/m2
08:19 60.4 °F /  15.8 °C 34.0 °F /  1.1 °C 30.26in /  1024.6hPa ENE 4.0mph /  6.4km/h 6.0mph /  9.7km/h 37% 0.00in /  0mm 53.0 W/m2
08:25 61.0 °F /  16.1 °C 33.1 °F /  0.6 °C 30.26in /  1024.6hPa ENE 0.9mph /  1.4km/h 13.0mph /  20.9km/h 35% 0.00in /  0mm 53.0 W/m2
08:31 61.3 °F /  16.3 °C 33.4 °F /  0.8 °C 30.26in /  1024.6hPa North 0.9mph /  1.4km/h 3.0mph /  4.8km/h 35% 0.00in /  0mm 54.0 W/m2
08:37 61.9 °F /  16.6 °C 33.3 °F /  0.7 °C 30.26in /  1024.6hPa Calm   9.0mph /  14.5km/h 34% 0.00in /  0mm 58.0 W/m2
08:43 62.4 °F /  16.9 °C 32.9 °F /  0.5 °C 30.26in /  1024.6hPa NE 2.9mph /  4.7km/h 8.0mph /  12.9km/h 33% 0.00in /  0mm 62.0 W/m2
08:50 63.0 °F /  17.2 °C 32.7 °F /  0.4 °C 30.26in /  1024.6hPa ESE 2.9mph /  4.7km/h 10.0mph /  16.1km/h 32% 0.00in /  0mm 63.0 W/m2
08:58 63.5 °F /  17.5 °C 32.4 °F /  0.2 °C 30.26in /  1024.6hPa ENE 4.0mph /  6.4km/h 9.0mph /  14.5km/h 31% 0.00in /  0mm 67.0 W/m2
09:04 63.9 °F /  17.7 °C 31.8 °F /  -0.1 °C 30.26in /  1024.6hPa Calm   8.0mph /  12.9km/h 30% 0.00in /  0mm 70.0 W/m2
09:10 64.4 °F /  18 °C 32.4 °F /  0.2 °C 30.26in /  1024.6hPa Calm   12.0mph /  19.3km/h 30% 0.00in /  0mm 74.0 W/m2
09:16 64.8 °F /  18.2 °C 31.8 °F /  -0.1 °C 30.26in /  1024.6hPa SE 4.0mph /  6.4km/h 8.0mph /  12.9km/h 29% 0.00in /  0mm 76.0 W/m2
09:22 65.3 °F /  18.5 °C 31.3 °F /  -0.4 °C 30.27in /  1024.9hPa ENE 2.0mph /  3.2km/h 12.0mph /  19.3km/h 28% 0.00in /  0mm 77.0 W/m2
09:28 65.8 °F /  18.8 °C 30.9 °F /  -0.6 °C 30.27in /  1024.9hPa NNE 4.0mph /  6.4km/h 9.0mph /  14.5km/h 27% 0.00in /  0mm 81.0 W/m2
09:34 66.2 °F /  19 °C 31.3 °F /  -0.4 °C 30.27in /  1024.9hPa ENE 4.0mph /  6.4km/h 12.0mph /  19.3km/h 27% 0.00in /  0mm 88.0 W/m2
09:41 66.6 °F /  19.2 °C 30.6 °F /  -0.8 °C 30.27in /  1024.9hPa NNE 2.0mph /  3.2km/h 8.0mph /  12.9km/h 26% 0.00in /  0mm 482.0 W/m2
09:46 67.3 °F /  19.6 °C 31.3 °F /  -0.4 °C 30.27in /  1024.9hPa ENE 10.1mph /  16.3km/h 10.1mph /  16.3km/h 26% 0.00in /  0mm 503.0 W/m2
09:52 68.0 °F /  20 °C 31.8 °F /  -0.1 °C 30.27in /  1024.9hPa East 6.0mph /  9.7km/h 11.0mph /  17.7km/h 26% 0.00in /  0mm 520.0 W/m2
09:58 68.7 °F /  20.4 °C 31.5 °F /  -0.3 °C 30.27in /  1024.9hPa East 4.0mph /  6.4km/h 7.0mph /  11.3km/h 25% 0.00in /  0mm 538.0 W/m2
10:04 69.4 °F /  20.8 °C 32.0 °F /  0 °C 30.26in /  1024.6hPa ENE 2.0mph /  3.2km/h 10.0mph /  16.1km/h 25% 0.00in /  0mm 561.0 W/m2
10:10 70.0 °F /  21.1 °C 31.5 °F /  -0.3 °C 30.26in /  1024.6hPa ENE 0.9mph /  1.4km/h 10.0mph /  16.1km/h 24% 0.00in /  0mm 578.0 W/m2
10:16 70.5 °F /  21.4 °C 32.0 °F /  0 °C 30.26in /  1024.6hPa ENE 4.0mph /  6.4km/h 7.0mph /  11.3km/h 24% 0.00in /  0mm 599.0 W/m2
10:22 71.2 °F /  21.8 °C 32.5 °F /  0.3 °C 30.26in /  1024.6hPa NNE 2.0mph /  3.2km/h 4.0mph /  6.4km/h 24% 0.00in /  0mm 626.0 W/m2
10:28 72.1 °F /  22.3 °C 32.4 °F /  0.2 °C 30.26in /  1024.6hPa NNE 6.9mph /  11.1km/h 11.0mph /  17.7km/h 23% 0.00in /  0mm 635.0 W/m2
10:35 72.5 °F /  22.5 °C 32.5 °F /  0.3 °C 30.26in /  1024.6hPa NNE 4.0mph /  6.4km/h 5.0mph /  8km/h 23% 0.00in /  0mm 647.0 W/m2
10:41 73.2 °F /  22.9 °C 32.2 °F /  0.1 °C 30.26in /  1024.6hPa NE 2.9mph /  4.7km/h 9.0mph /  14.5km/h 22% 0.00in /  0mm 663.0 W/m2
10:47 73.6 °F /  23.1 °C 33.4 °F /  0.8 °C 30.25in /  1024.3hPa Calm   5.0mph /  8km/h 23% 0.00in /  0mm 673.0 W/m2
10:53 74.1 °F /  23.4 °C 32.9 °F /  0.5 °C 30.25in /  1024.3hPa NNW 2.0mph /  3.2km/h 5.0mph /  8km/h 22% 0.00in /  0mm 691.0 W/m2
10:59 74.7 °F /  23.7 °C 33.3 °F /  0.7 °C 30.25in /  1024.3hPa Calm   6.0mph /  9.7km/h 22% 0.00in /  0mm 710.0 W/m2
11:05 75.0 °F /  23.9 °C 32.4 °F /  0.2 °C 30.25in /  1024.3hPa SE 0.9mph /  1.4km/h 6.0mph /  9.7km/h 21% 0.00in /  0mm 715.0 W/m2
11:11 75.6 °F /  24.2 °C 32.9 °F /  0.5 °C 30.24in /  1023.9hPa North 8.1mph /  13km/h 8.1mph /  13km/h 21% 0.00in /  0mm 724.0 W/m2
11:18 75.7 °F /  24.3 °C 33.1 °F /  0.6 °C 30.24in /  1023.9hPa North 2.9mph /  4.7km/h 6.0mph /  9.7km/h 21% 0.00in /  0mm 738.0 W/m2
11:24 76.5 °F /  24.7 °C 33.6 °F /  0.9 °C 30.24in /  1023.9hPa ENE 4.0mph /  6.4km/h 4.0mph /  6.4km/h 21% 0.00in /  0mm 751.0 W/m2
11:30 76.8 °F /  24.9 °C 32.7 °F /  0.4 °C 30.24in /  1023.9hPa NNE 4.9mph /  7.9km/h 7.0mph /  11.3km/h 20% 0.00in /  0mm 758.0 W/m2
11:36 77.2 °F /  25.1 °C 33.1 °F /  0.6 °C 30.24in /  1023.9hPa NNE 2.0mph /  3.2km/h 8.0mph /  12.9km/h 20% 0.00in /  0mm 770.0 W/m2
11:42 77.4 °F /  25.2 °C 33.1 °F /  0.6 °C 30.23in /  1023.6hPa East 4.9mph /  7.9km/h 6.0mph /  9.7km/h 20% 0.00in /  0mm 777.0 W/m2
11:48 77.5 °F /  25.3 °C 33.3 °F /  0.7 °C 30.23in /  1023.6hPa NNE 4.0mph /  6.4km/h 11.0mph /  17.7km/h 20% 0.00in /  0mm 786.0 W/m2
11:54 77.7 °F /  25.4 °C 33.4 °F /  0.8 °C 30.22in /  1023.2hPa NW 6.0mph /  9.7km/h 6.0mph /  9.7km/h 20% 0.00in /  0mm 788.0 W/m2
12:01 78.3 °F /  25.7 °C 34.0 °F /  1.1 °C 30.22in /  1023.2hPa Calm   3.0mph /  4.8km/h 20% 0.00in /  0mm 795.0 W/m2
12:07 78.6 °F /  25.9 °C 32.9 °F /  0.5 °C 30.21in /  1022.9hPa North 6.0mph /  9.7km/h 11.0mph /  17.7km/h 19% 0.00in /  0mm 793.0 W/m2
12:13 78.6 °F /  25.9 °C 32.9 °F /  0.5 °C 30.21in /  1022.9hPa East 2.0mph /  3.2km/h 9.0mph /  14.5km/h 19% 0.00in /  0mm 802.0 W/m2
12:19 78.6 °F /  25.9 °C 32.9 °F /  0.5 °C 30.21in /  1022.9hPa North 2.9mph /  4.7km/h 7.0mph /  11.3km/h 19% 0.00in /  0mm 807.0 W/m2
12:25 79.2 °F /  26.2 °C 33.4 °F /  0.8 °C 30.20in /  1022.6hPa NNW 4.0mph /  6.4km/h 5.0mph /  8km/h 19% 0.00in /  0mm 812.0 W/m2
12:32 79.3 °F /  26.3 °C 33.4 °F /  0.8 °C 30.20in /  1022.6hPa Calm   4.0mph /  6.4km/h 19% 0.00in /  0mm 819.0 W/m2
12:37 79.3 °F /  26.3 °C 33.4 °F /  0.8 °C 30.19in /  1022.2hPa ENE 6.9mph /  11.1km/h 7.0mph /  11.3km/h 19% 0.00in /  0mm 814.0 W/m2
12:43 79.9 °F /  26.6 °C 32.5 °F /  0.3 °C 30.19in /  1022.2hPa Calm   8.0mph /  12.9km/h 18% 0.00in /  0mm 814.0 W/m2
12:49 80.2 °F /  26.8 °C 32.9 °F /  0.5 °C 30.19in /  1022.2hPa NNE 6.9mph /  11.1km/h 7.0mph /  11.3km/h 18% 0.00in /  0mm 812.0 W/m2
12:55 80.4 °F /  26.9 °C 33.1 °F /  0.6 °C 30.18in /  1021.9hPa NW 2.9mph /  4.7km/h 5.0mph /  8km/h 18% 0.00in /  0mm 814.0 W/m2
13:02 81.0 °F /  27.2 °C 33.4 °F /  0.8 °C 30.18in /  1021.9hPa WNW 0.9mph /  1.4km/h 6.0mph /  9.7km/h 18% 0.00in /  0mm 814.0 W/m2
13:08 81.3 °F /  27.4 °C 32.4 °F /  0.2 °C 30.18in /  1021.9hPa NW 2.9mph /  4.7km/h 5.0mph /  8km/h 17% 0.00in /  0mm 807.0 W/m2
13:14 81.7 °F /  27.6 °C 32.5 °F /  0.3 °C 30.17in /  1021.6hPa WSW 0.9mph /  1.4km/h 6.0mph /  9.7km/h 17% 0.00in /  0mm 805.0 W/m2
13:20 81.7 °F /  27.6 °C 32.5 °F /  0.3 °C 30.17in /  1021.6hPa NNW 2.0mph /  3.2km/h 6.0mph /  9.7km/h 17% 0.00in /  0mm 802.0 W/m2
13:26 81.5 °F /  27.5 °C 32.5 °F /  0.3 °C 30.17in /  1021.6hPa NNE 4.0mph /  6.4km/h 7.0mph /  11.3km/h 17% 0.00in /  0mm 793.0 W/m2
13:32 81.3 °F /  27.4 °C 32.4 °F /  0.2 °C 30.16in /  1021.2hPa NNE 2.9mph /  4.7km/h 4.0mph /  6.4km/h 17% 0.00in /  0mm 798.0 W/m2
13:38 81.3 °F /  27.4 °C 32.4 °F /  0.2 °C 30.16in /  1021.2hPa SE 4.9mph /  7.9km/h 8.0mph /  12.9km/h 17% 0.00in /  0mm 791.0 W/m2
13:45 81.3 °F /  27.4 °C 30.9 °F /  -0.6 °C 30.15in /  1020.9hPa West 2.0mph /  3.2km/h 4.0mph /  6.4km/h 16% 0.00in /  0mm 784.0 W/m2
13:51 81.0 °F /  27.2 °C 32.0 °F /  0 °C 30.15in /  1020.9hPa North 2.9mph /  4.7km/h 6.0mph /  9.7km/h 17% 0.00in /  0mm 779.0 W/m2
13:57 81.3 °F /  27.4 °C 30.9 °F /  -0.6 °C 30.15in /  1020.9hPa West 2.0mph /  3.2km/h 4.0mph /  6.4km/h 16% 0.00in /  0mm 763.0 W/m2
14:03 81.3 °F /  27.4 °C 30.9 °F /  -0.6 °C 30.14in /  1020.5hPa South 2.9mph /  4.7km/h 4.0mph /  6.4km/h 16% 0.00in /  0mm 756.0 W/m2
14:09 81.7 °F /  27.6 °C 32.5 °F /  0.3 °C 30.14in /  1020.5hPa SE 2.0mph /  3.2km/h 4.0mph /  6.4km/h 17% 0.00in /  0mm 745.0 W/m2
14:15 81.9 °F /  27.7 °C 31.3 °F /  -0.4 °C 30.13in /  1020.2hPa Calm   3.0mph /  4.8km/h 16% 0.00in /  0mm 749.0 W/m2
14:22 82.2 °F /  27.9 °C 31.6 °F /  -0.2 °C 30.13in /  1020.2hPa WSW 2.0mph /  3.2km/h 3.0mph /  4.8km/h 16% 0.00in /  0mm 742.0 W/m2
14:28 82.6 °F /  28.1 °C 31.8 °F /  -0.1 °C 30.13in /  1020.2hPa Calm   1.0mph /  1.6km/h 16% 0.00in /  0mm 737.0 W/m2
14:34 82.9 °F /  28.3 °C 30.6 °F /  -0.8 °C 30.13in /  1020.2hPa South 0.9mph /  1.4km/h 5.0mph /  8km/h 15% 0.00in /  0mm 742.0 W/m2
14:40 82.2 °F /  27.9 °C 31.6 °F /  -0.2 °C 30.12in /  1019.9hPa SSE 2.0mph /  3.2km/h 4.0mph /  6.4km/h 16% 0.00in /  0mm 118.0 W/m2
14:46 81.1 °F /  27.3 °C 30.7 °F /  -0.7 °C 30.12in /  1019.9hPa SE 2.9mph /  4.7km/h 5.0mph /  8km/h 16% 0.00in /  0mm 162.0 W/m2
14:52 81.0 °F /  27.2 °C 30.6 °F /  -0.8 °C 30.12in /  1019.9hPa NE 2.0mph /  3.2km/h 4.0mph /  6.4km/h 16% 0.00in /  0mm 281.0 W/m2
14:58 81.1 °F /  27.3 °C 30.7 °F /  -0.7 °C 30.12in /  1019.9hPa Calm   1.0mph /  1.6km/h 16% 0.00in /  0mm 712.0 W/m2
15:05 81.9 °F /  27.7 °C 31.3 °F /  -0.4 °C 30.11in /  1019.5hPa South 2.9mph /  4.7km/h 3.0mph /  4.8km/h 16% 0.00in /  0mm 715.0 W/m2
15:11 82.0 °F /  27.8 °C 29.8 °F /  -1.2 °C 30.11in /  1019.5hPa Calm   3.0mph /  4.8km/h 15% 0.00in /  0mm 642.0 W/m2
15:17 82.2 °F /  27.9 °C 30.0 °F /  -1.1 °C 30.11in /  1019.5hPa NE 6.0mph /  9.7km/h 6.0mph /  9.7km/h 15% 0.00in /  0mm 673.0 W/m2
15:23 82.8 °F /  28.2 °C 32.0 °F /  0 °C 30.11in /  1019.5hPa ESE 2.0mph /  3.2km/h 5.0mph /  8km/h 16% 0.00in /  0mm 626.0 W/m2
15:29 83.1 °F /  28.4 °C 30.7 °F /  -0.7 °C 30.11in /  1019.5hPa ESE 0.9mph /  1.4km/h 4.0mph /  6.4km/h 15% 0.00in /  0mm 192.0 W/m2
15:35 83.5 °F /  28.6 °C 30.9 °F /  -0.6 °C 30.11in /  1019.5hPa ESE 0.9mph /  1.4km/h 5.0mph /  8km/h 15% 0.00in /  0mm 165.0 W/m2
15:41 82.9 °F /  28.3 °C 30.6 °F /  -0.8 °C 30.11in /  1019.5hPa East 2.0mph /  3.2km/h 3.0mph /  4.8km/h 15% 0.00in /  0mm 151.0 W/m2
15:47 82.4 °F /  28 °C 30.2 °F /  -1 °C 30.11in /  1019.5hPa Calm   2.0mph /  3.2km/h 15% 0.00in /  0mm 489.0 W/m2
15:54 82.0 °F /  27.8 °C 29.8 °F /  -1.2 °C 30.11in /  1019.5hPa Calm   3.0mph /  4.8km/h 15% 0.00in /  0mm 155.0 W/m2
16:00 81.3 °F /  27.4 °C 29.3 °F /  -1.5 °C 30.11in /  1019.5hPa Calm   1.0mph /  1.6km/h 15% 0.00in /  0mm 141.0 W/m2
16:06 81.0 °F /  27.2 °C 28.9 °F /  -1.7 °C 30.10in /  1019.2hPa Calm   4.0mph /  6.4km/h 15% 0.00in /  0mm 156.0 W/m2
16:12 80.4 °F /  26.9 °C 30.2 °F /  -1 °C 30.10in /  1019.2hPa Calm   2.0mph /  3.2km/h 16% 0.00in /  0mm 169.0 W/m2
16:18 81.0 °F /  27.2 °C 30.6 °F /  -0.8 °C 30.10in /  1019.2hPa Calm   2.0mph /  3.2km/h 16% 0.00in /  0mm 471.0 W/m2
16:24 81.3 °F /  27.4 °C 29.3 °F /  -1.5 °C 30.10in /  1019.2hPa Calm   2.0mph /  3.2km/h 15% 0.00in /  0mm 429.0 W/m2
16:30 81.7 °F /  27.6 °C 29.5 °F /  -1.4 °C 30.10in /  1019.2hPa Calm   3.0mph /  4.8km/h 15% 0.00in /  0mm 385.0 W/m2
16:37 81.5 °F /  27.5 °C 29.5 °F /  -1.4 °C 30.10in /  1019.2hPa Calm   2.0mph /  3.2km/h 15% 0.00in /  0mm 120.0 W/m2
16:43 81.3 °F /  27.4 °C 29.3 °F /  -1.5 °C 30.10in /  1019.2hPa Calm     15% 0.00in /  0mm 105.0 W/m2
16:49 81.0 °F /  27.2 °C 28.9 °F /  -1.7 °C 30.10in /  1019.2hPa WSW 2.0mph /  3.2km/h 5.0mph /  8km/h 15% 0.00in /  0mm 102.0 W/m2
16:55 80.6 °F /  27 °C 30.2 °F /  -1 °C 30.10in /  1019.2hPa Calm   3.0mph /  4.8km/h 16% 0.00in /  0mm 292.0 W/m2
17:01 80.8 °F /  27.1 °C 28.8 °F /  -1.8 °C 30.10in /  1019.2hPa ENE 2.0mph /  3.2km/h 5.0mph /  8km/h 15% 0.00in /  0mm 130.0 W/m2
17:09 80.4 °F /  26.9 °C 30.2 °F /  -1 °C 30.10in /  1019.2hPa Calm   5.0mph /  8km/h 16% 0.00in /  0mm 81.0 W/m2
17:16 80.1 °F /  26.7 °C 29.8 °F /  -1.2 °C 30.10in /  1019.2hPa Calm     16% 0.00in /  0mm 74.0 W/m2
17:22 80.1 °F /  26.7 °C 29.8 °F /  -1.2 °C 30.10in /  1019.2hPa Calm     16% 0.00in /  0mm 190.0 W/m2
17:28 80.2 °F /  26.8 °C 28.4 °F /  -2 °C 30.10in /  1019.2hPa Calm     15% 0.00in /  0mm 155.0 W/m2
17:34 80.4 °F /  26.9 °C 30.2 °F /  -1 °C 30.10in /  1019.2hPa East 0.9mph /  1.4km/h 2.0mph /  3.2km/h 16% 0.00in /  0mm 118.0 W/m2
17:44 80.2 °F /  26.8 °C 28.4 °F /  -2 °C 30.10in /  1019.2hPa ESE 2.9mph /  4.7km/h 3.0mph /  4.8km/h 15% 0.00in /  0mm 65.0 W/m2
17:50 80.1 °F /  26.7 °C 28.2 °F /  -2.1 °C 30.11in /  1019.5hPa ESE 0.9mph /  1.4km/h 3.0mph /  4.8km/h 15% 0.00in /  0mm 72.0 W/m2
17:57 79.9 °F /  26.6 °C 29.7 °F /  -1.3 °C 30.11in /  1019.5hPa SE 6.9mph /  11.1km/h 7.0mph /  11.3km/h 16% 0.00in /  0mm 44.0 W/m2
18:03 79.3 °F /  26.3 °C 29.3 °F /  -1.5 °C 30.11in /  1019.5hPa SE 2.0mph /  3.2km/h 5.0mph /  8km/h 16% 0.00in /  0mm 18.0 W/m2
18:09 78.6 °F /  25.9 °C 28.8 °F /  -1.8 °C 30.11in /  1019.5hPa Calm   3.0mph /  4.8km/h 16% 0.00in /  0mm 11.0 W/m2
18:15 78.3 °F /  25.7 °C 28.4 °F /  -2 °C 30.11in /  1019.5hPa Calm   5.0mph /  8km/h 16% 0.00in /  0mm 7.0 W/m2
18:21 77.5 °F /  25.3 °C 29.3 °F /  -1.5 °C 30.11in /  1019.5hPa Calm   4.0mph /  6.4km/h 17% 0.00in /  0mm 5.0 W/m2
18:27 77.0 °F /  25 °C 28.8 °F /  -1.8 °C 30.11in /  1019.5hPa East 0.9mph /  1.4km/h 3.0mph /  4.8km/h 17% 0.00in /  0mm 5.0 W/m2
18:34 76.5 °F /  24.7 °C 28.4 °F /  -2 °C 30.11in /  1019.5hPa ENE 2.0mph /  3.2km/h 2.0mph /  3.2km/h 17% 0.00in /  0mm 0.0 W/m2
18:39 75.9 °F /  24.4 °C 29.3 °F /  -1.5 °C 30.11in /  1019.5hPa Calm   4.0mph /  6.4km/h 18% 0.00in /  0mm 0.0 W/m2
18:46 75.4 °F /  24.1 °C 28.9 °F /  -1.7 °C 30.11in /  1019.5hPa East 0.9mph /  1.4km/h 1.0mph /  1.6km/h 18% 0.00in /  0mm 0.0 W/m2
18:52 74.8 °F /  23.8 °C 29.8 °F /  -1.2 °C 30.11in /  1019.5hPa Calm   1.0mph /  1.6km/h 19% 0.00in /  0mm 0.0 W/m2
18:58 74.5 °F /  23.6 °C 29.5 °F /  -1.4 °C 30.12in /  1019.9hPa Calm   1.0mph /  1.6km/h 19% 0.00in /  0mm 0.0 W/m2
19:04 73.8 °F /  23.2 °C 30.2 °F /  -1 °C 30.12in /  1019.9hPa Calm   1.0mph /  1.6km/h 20% 0.00in /  0mm 0.0 W/m2
19:10 73.2 °F /  22.9 °C 29.7 °F /  -1.3 °C 30.12in /  1019.9hPa Calm   1.0mph /  1.6km/h 20% 0.00in /  0mm 0.0 W/m2
19:16 72.9 °F /  22.7 °C 29.5 °F /  -1.4 °C 30.13in /  1020.2hPa Calm   3.0mph /  4.8km/h 20% 0.00in /  0mm 0.0 W/m2
19:22 72.3 °F /  22.4 °C 28.9 °F /  -1.7 °C 30.13in /  1020.2hPa Calm   2.0mph /  3.2km/h 20% 0.00in /  0mm 0.0 W/m2
19:30 72.0 °F /  22.2 °C 29.8 °F /  -1.2 °C 30.13in /  1020.2hPa Calm   2.0mph /  3.2km/h 21% 0.00in /  0mm 0.0 W/m2
19:37 71.8 °F /  22.1 °C 29.7 °F /  -1.3 °C 30.14in /  1020.5hPa East 0.9mph /  1.4km/h 1.0mph /  1.6km/h 21% 0.00in /  0mm 0.0 W/m2
19:43 71.8 °F /  22.1 °C 30.9 °F /  -0.6 °C 30.14in /  1020.5hPa Calm     22% 0.00in /  0mm 0.0 W/m2
19:49 71.4 °F /  21.9 °C 30.6 °F /  -0.8 °C 30.15in /  1020.9hPa Calm     22% 0.00in /  0mm 0.0 W/m2
19:55 71.2 °F /  21.8 °C 30.4 °F /  -0.9 °C 30.16in /  1021.2hPa NW 0.9mph /  1.4km/h 6.0mph /  9.7km/h 22% 0.00in /  0mm 0.0 W/m2
20:01 71.1 °F /  21.7 °C 30.2 °F /  -1 °C 30.16in /  1021.2hPa Calm   2.0mph /  3.2km/h 22% 0.00in /  0mm 0.0 W/m2
20:07 71.1 °F /  21.7 °C 30.2 °F /  -1 °C 30.16in /  1021.2hPa North 0.9mph /  1.4km/h 9.0mph /  14.5km/h 22% 0.00in /  0mm 0.0 W/m2
20:13 71.2 °F /  21.8 °C 30.4 °F /  -0.9 °C 30.17in /  1021.6hPa Calm     22% 0.00in /  0mm 0.0 W/m2
20:19 71.1 °F /  21.7 °C 30.2 °F /  -1 °C 30.17in /  1021.6hPa Calm   4.0mph /  6.4km/h 22% 0.00in /  0mm 0.0 W/m2
20:25 71.1 °F /  21.7 °C 30.2 °F /  -1 °C 30.18in /  1021.9hPa Calm   1.0mph /  1.6km/h 22% 0.00in /  0mm 0.0 W/m2
20:31 71.1 °F /  21.7 °C 32.4 °F /  0.2 °C 30.18in /  1021.9hPa Calm   4.0mph /  6.4km/h 24% 0.00in /  0mm 0.0 W/m2
20:37 71.1 °F /  21.7 °C 32.4 °F /  0.2 °C 30.18in /  1021.9hPa NNW 0.9mph /  1.4km/h 3.0mph /  4.8km/h 24% 0.00in /  0mm 0.0 W/m2
20:43 71.1 °F /  21.7 °C 33.4 °F /  0.8 °C 30.18in /  1021.9hPa Calm   1.0mph /  1.6km/h 25% 0.00in /  0mm 0.0 W/m2
20:49 70.7 °F /  21.5 °C 33.1 °F /  0.6 °C 30.19in /  1022.2hPa Calm   1.0mph /  1.6km/h 25% 0.00in /  0mm 0.0 W/m2
20:55 70.3 °F /  21.3 °C 32.9 °F /  0.5 °C 30.19in /  1022.2hPa Calm     25% 0.00in /  0mm 0.0 W/m2
21:01 70.2 °F /  21.2 °C 33.6 °F /  0.9 °C 30.19in /  1022.2hPa Calm     26% 0.00in /  0mm 0.0 W/m2
21:07 69.6 °F /  20.9 °C 33.3 °F /  0.7 °C 30.19in /  1022.2hPa Calm     26% 0.00in /  0mm 0.0 W/m2
21:13 69.3 °F /  20.7 °C 32.9 °F /  0.5 °C 30.19in /  1022.2hPa Calm     26% 0.00in /  0mm 0.0 W/m2
21:19 68.7 °F /  20.4 °C 33.4 °F /  0.8 °C 30.19in /  1022.2hPa Calm     27% 0.00in /  0mm 0.0 W/m2
21:25 68.4 °F /  20.2 °C 33.1 °F /  0.6 °C 30.19in /  1022.2hPa Calm     27% 0.00in /  0mm 0.0 W/m2
21:31 67.8 °F /  19.9 °C 33.4 °F /  0.8 °C 30.19in /  1022.2hPa Calm     28% 0.00in /  0mm 0.0 W/m2
21:37 67.5 °F /  19.7 °C 33.3 °F /  0.7 °C 30.19in /  1022.2hPa Calm     28% 0.00in /  0mm 0.0 W/m2
21:44 66.9 °F /  19.4 °C 33.6 °F /  0.9 °C 30.20in /  1022.6hPa Calm     29% 0.00in /  0mm 0.0 W/m2
22:45 66.2 °F /  19 °C 33.1 °F /  0.6 °C 30.22in /  1023.2hPa Calm   7.0mph /  11.3km/h 29% 0.00in /  0mm 0.0 W/m2
22:51 66.4 °F /  19.1 °C 33.1 °F /  0.6 °C 30.22in /  1023.2hPa Calm     29% 0.00in /  0mm 0.0 W/m2
22:57 66.2 °F /  19 °C 33.1 °F /  0.6 °C 30.21in /  1022.9hPa Calm   2.0mph /  3.2km/h 29% 0.00in /  0mm 0.0 W/m2
23:03 66.0 °F /  18.9 °C 33.6 °F /  0.9 °C 30.21in /  1022.9hPa Calm     30% 0.00in /  0mm 0.0 W/m2
23:09 65.7 °F /  18.7 °C 33.4 °F /  0.8 °C 30.21in /  1022.9hPa East 0.9mph /  1.4km/h 2.0mph /  3.2km/h 30% 0.00in /  0mm 0.0 W/m2
23:16 65.3 °F /  18.5 °C 33.1 °F /  0.6 °C 30.21in /  1022.9hPa Calm     30% 0.00in /  0mm 0.0 W/m2
23:22 64.9 °F /  18.3 °C 33.6 °F /  0.9 °C 30.21in /  1022.9hPa Calm     31% 0.00in /  0mm 0.0 W/m2
23:28 64.6 °F /  18.1 °C 33.3 °F /  0.7 °C 30.21in /  1022.9hPa Calm     31% 0.00in /  0mm 0.0 W/m2
23:34 64.0 °F /  17.8 °C 33.6 °F /  0.9 °C 30.21in /  1022.9hPa Calm   1.0mph /  1.6km/h 32% 0.00in /  0mm 0.0 W/m2
23:40 63.7 °F /  17.6 °C 33.3 °F /  0.7 °C 30.21in /  1022.9hPa SE 2.0mph /  3.2km/h 2.0mph /  3.2km/h 32% 0.00in /  0mm 0.0 W/m2
23:46 63.1 °F /  17.3 °C 32.7 °F /  0.4 °C 30.21in /  1022.9hPa SE 0.9mph /  1.4km/h 1.0mph /  1.6km/h 32% 0.00in /  0mm 0.0 W/m2
23:53 63.0 °F /  17.2 °C 32.7 °F /  0.4 °C 30.20in /  1022.6hPa Calm     32% 0.00in /  0mm 0.0 W/m2
23:59 62.8 °F /  17.1 °C 32.5 °F /  0.3 °C 30.20in /  1022.6hPa Calm   1.0mph /  1.6km/h 32% 0.00in /  0mm 0.0 W/m2
Olympia, Windhoek, Namibia
Compliments of Weather Underground - 3 mb